createdAt,value
2019-01-16T00:03:36.992Z,100284.00
2019-01-16T00:08:40.140Z,100280.00
2019-01-16T00:13:55.565Z,100270.00
2019-01-16T00:19:15.341Z,100269.00
2019-01-16T00:24:33.464Z,100264.00
2019-01-16T00:29:36.601Z,100263.00
2019-01-16T00:34:56.491Z,100257.00
2019-01-16T00:39:59.687Z,100260.00
2019-01-16T00:45:05.969Z,100268.00
2019-01-16T00:50:09.938Z,100260.00
2019-01-16T00:55:13.095Z,100259.00
2019-01-16T01:00:17.147Z,100258.00
2019-01-16T01:05:20.405Z,100261.00
2019-01-16T01:10:23.556Z,100260.00
2019-01-16T01:15:43.691Z,100253.00
2019-01-16T01:21:03.598Z,100246.00
2019-01-16T01:26:06.741Z,100244.00
2019-01-16T01:31:10.078Z,100238.00
2019-01-16T01:36:29.815Z,100242.00
2019-01-16T01:41:32.981Z,100246.00
2019-01-16T01:46:45.123Z,100239.00
2019-01-16T01:51:48.282Z,100235.00
2019-01-16T01:56:57.399Z,100233.00
2019-01-16T02:02:00.488Z,100228.00
2019-01-16T02:07:03.743Z,100224.00
2019-01-16T02:12:06.999Z,100219.00
2019-01-16T02:17:10.165Z,100216.00
2019-01-16T02:22:13.321Z,100210.00
2019-01-16T02:27:31.726Z,100205.00
2019-01-16T02:32:34.874Z,100211.00
2019-01-16T02:37:43.937Z,100202.00
2019-01-16T02:42:55.823Z,100199.00
2019-01-16T02:48:13.932Z,100189.00
2019-01-16T02:53:32.079Z,100185.00
2019-01-16T02:58:44.295Z,100173.00
2019-01-16T03:03:53.310Z,100164.00
2019-01-16T03:09:11.502Z,100156.00
2019-01-16T03:14:31.388Z,100166.00
2019-01-16T03:19:34.558Z,100149.00
2019-01-16T03:24:40.655Z,100150.00
2019-01-16T03:29:43.817Z,100147.00
2019-01-16T03:34:58.924Z,100147.00
2019-01-16T03:40:08.009Z,100134.00
2019-01-16T03:45:17.599Z,100131.00
2019-01-16T03:50:23.401Z,100133.00
2019-01-16T03:55:26.586Z,100115.00
2019-01-16T04:00:29.741Z,100123.00
2019-01-16T04:05:44.578Z,100110.00
2019-01-16T04:10:50.356Z,100110.00
2019-01-16T04:15:53.521Z,100104.00
2019-01-16T04:21:02.628Z,100095.00
2019-01-16T04:26:22.274Z,100091.00
2019-01-16T04:31:34.216Z,100087.00
2019-01-16T04:36:43.062Z,100094.00
2019-01-16T04:41:48.841Z,100080.00
2019-01-16T04:47:00.888Z,100082.00
2019-01-16T04:52:07.037Z,100069.00
2019-01-16T04:57:26.994Z,100059.00
2019-01-16T05:02:30.145Z,100060.00
2019-01-16T05:07:35.921Z,100064.00
2019-01-16T05:12:42.151Z,100060.00
2019-01-16T05:17:45.978Z,100057.00
2019-01-16T05:22:49.133Z,100057.00
2019-01-16T05:27:55.207Z,100057.00
2019-01-16T05:33:15.239Z,100049.00
2019-01-16T05:38:27.342Z,100033.00
2019-01-16T05:43:30.486Z,100030.00
2019-01-16T05:48:39.568Z,100022.00
2019-01-16T05:53:48.415Z,100022.00
2019-01-16T05:58:51.565Z,100020.00
2019-01-16T06:04:00.919Z,100015.00
2019-01-16T06:09:07.667Z,99992.00
2019-01-16T06:14:16.499Z,100000.00
2019-01-16T06:19:31.821Z,100006.00
2019-01-16T06:24:34.956Z,99992.00
2019-01-16T06:29:53.319Z,99999.00
2019-01-16T06:34:56.471Z,99994.00
2019-01-16T06:40:16.404Z,100000.00
2019-01-16T06:45:19.569Z,99988.00
2019-01-16T06:50:22.751Z,99980.00
2019-01-16T06:55:35.021Z,99980.00
2019-01-16T07:00:47.043Z,99976.00
2019-01-16T07:06:02.147Z,99978.00
2019-01-16T07:11:05.582Z,99973.00
2019-01-16T07:16:17.776Z,99977.00
2019-01-16T07:21:20.922Z,100000.00
2019-01-16T07:26:29.759Z,99980.00
2019-01-16T07:31:33.106Z,99983.00
2019-01-16T07:36:36.359Z,99980.00
2019-01-16T07:41:45.265Z,99973.00
2019-01-16T07:46:57.358Z,99978.00
2019-01-16T07:52:06.747Z,99979.00
2019-01-16T07:57:09.904Z,99985.00
2019-01-16T08:02:24.961Z,99977.00
2019-01-16T08:07:28.113Z,99980.00
2019-01-16T08:12:47.957Z,99979.00
2019-01-16T08:17:54.051Z,99978.00
2019-01-16T08:23:13.801Z,99985.00
2019-01-16T08:28:22.683Z,99976.00
2019-01-16T08:33:31.653Z,99970.00
2019-01-16T08:38:37.684Z,99968.00
2019-01-16T08:43:57.504Z,99969.00
2019-01-16T08:49:15.759Z,99980.00
2019-01-16T08:54:24.627Z,99960.00
2019-01-16T08:59:42.859Z,99962.00
2019-01-16T09:04:46.081Z,99960.00
2019-01-16T09:09:55.303Z,99964.00
2019-01-16T09:14:58.488Z,99959.00
2019-01-16T09:20:07.736Z,99946.00
2019-01-16T09:25:10.881Z,99940.00
2019-01-16T09:30:30.879Z,99940.00
2019-01-16T09:35:36.653Z,99931.00
2019-01-16T09:40:48.547Z,99928.00
2019-01-16T09:45:57.768Z,99928.00
2019-01-16T09:51:17.756Z,99910.00
2019-01-16T09:56:20.918Z,99920.00
2019-01-16T10:01:33.301Z,99916.00
2019-01-16T10:06:45.636Z,99926.00
2019-01-16T10:12:05.665Z,99918.00
2019-01-16T10:17:17.802Z,99914.00
2019-01-16T10:22:20.952Z,99912.00
2019-01-16T10:27:29.752Z,99881.00
2019-01-16T10:32:35.628Z,99871.00
2019-01-16T10:37:41.900Z,99855.00
2019-01-16T10:42:47.722Z,99856.00
2019-01-16T10:47:56.847Z,99859.00
2019-01-16T10:53:16.690Z,99845.00
2019-01-16T10:58:34.783Z,99826.00
2019-01-16T11:03:37.924Z,99823.00
2019-01-16T11:08:41.089Z,99828.00
2019-01-16T11:13:50.260Z,99825.00
2019-01-16T11:18:59.324Z,99806.00
2019-01-16T11:24:02.532Z,99804.00
2019-01-16T11:29:22.491Z,99791.00
2019-01-16T11:34:31.513Z,99780.00
2019-01-16T11:39:34.959Z,99756.00
2019-01-16T11:44:38.110Z,99752.00
2019-01-16T11:49:47.167Z,99750.00
2019-01-16T11:54:53.017Z,99735.00
2019-01-16T11:59:56.165Z,99730.00
2019-01-16T12:05:02.560Z,99715.00
2019-01-16T12:10:19.925Z,99705.00
2019-01-16T12:15:29.094Z,99715.00
2019-01-16T12:20:44.141Z,99711.00
2019-01-16T12:25:52.987Z,99695.00
2019-01-16T12:30:59.287Z,99686.00
2019-01-16T12:36:02.581Z,99677.00
2019-01-16T12:41:08.571Z,99669.00
2019-01-16T12:46:17.354Z,99659.00
2019-01-16T12:51:33.569Z,99652.00
2019-01-16T12:56:36.914Z,99639.00
2019-01-16T13:01:46.278Z,99628.00
2019-01-16T13:07:01.417Z,99624.00
2019-01-16T13:12:11.742Z,99625.00
2019-01-16T13:17:31.324Z,99617.00
2019-01-16T13:22:46.542Z,99610.00
2019-01-16T13:27:58.740Z,99603.00
2019-01-16T13:33:16.853Z,99599.00
2019-01-16T13:38:36.467Z,99602.00
2019-01-16T13:43:57.949Z,99596.00
2019-01-16T13:49:17.741Z,99590.00
2019-01-16T13:54:33.253Z,99585.00
2019-01-16T13:59:36.408Z,99574.00
2019-01-16T14:04:45.550Z,99576.00
2019-01-16T14:09:51.634Z,99566.00
2019-01-16T14:15:00.518Z,99554.00
2019-01-16T14:20:13.672Z,99539.00
2019-01-16T14:25:19.791Z,99529.00
2019-01-16T14:30:39.688Z,99534.00
2019-01-16T14:36:00.966Z,99525.00
2019-01-16T14:41:06.749Z,99522.00
2019-01-16T14:46:22.068Z,99508.00
2019-01-16T14:51:25.952Z,99496.00
2019-01-16T14:56:32.129Z,99482.00
2019-01-16T15:01:47.592Z,99473.00
2019-01-16T15:07:09.040Z,99468.00
2019-01-16T15:12:26.948Z,99457.00
2019-01-16T15:17:36.296Z,99460.00
2019-01-16T15:22:42.080Z,99446.00
2019-01-16T15:27:51.221Z,99443.00
2019-01-16T15:33:10.701Z,99434.00
2019-01-16T15:38:26.089Z,99426.00
2019-01-16T15:43:29.240Z,99420.00
2019-01-16T15:48:48.901Z,99414.00
2019-01-16T15:53:52.086Z,99416.00
2019-01-16T15:59:07.241Z,99403.00
2019-01-16T16:04:10.399Z,99403.00
2019-01-16T16:09:30.124Z,99401.00
2019-01-16T16:14:42.153Z,99398.00
2019-01-16T16:19:47.952Z,99378.00
2019-01-16T16:25:03.084Z,99376.00
2019-01-16T16:30:28.251Z,99379.00
2019-01-16T16:35:31.553Z,99365.00
2019-01-16T16:40:37.616Z,99369.00
2019-01-16T16:45:52.720Z,99369.00
2019-01-16T16:51:05.056Z,99347.00
2019-01-16T16:56:24.965Z,99352.00
2019-01-16T17:01:43.367Z,99349.00
2019-01-16T17:06:55.254Z,99342.00
2019-01-16T17:12:04.395Z,99341.00
2019-01-16T17:17:17.224Z,99339.00
2019-01-16T17:22:32.594Z,99332.00
2019-01-16T17:27:41.684Z,99339.00
2019-01-16T17:32:56.923Z,99331.00
2019-01-16T17:38:11.814Z,99328.00
2019-01-16T17:43:15.096Z,99307.00
2019-01-16T17:48:21.101Z,99311.00
2019-01-16T17:53:30.148Z,99294.00
2019-01-16T17:58:36.323Z,99291.00
2019-01-16T18:03:54.550Z,99277.00
2019-01-16T18:09:00.721Z,99286.00
2019-01-16T18:14:06.485Z,99282.00
2019-01-16T18:19:27.731Z,99270.00
2019-01-16T18:24:30.915Z,99259.00
2019-01-16T18:29:34.183Z,99244.00
2019-01-16T18:34:37.452Z,99248.00
2019-01-16T18:39:43.403Z,99246.00
2019-01-16T18:44:46.588Z,99254.00
2019-01-16T18:49:52.600Z,99248.00
2019-01-16T18:55:12.537Z,99244.00
2019-01-16T19:00:22.177Z,99248.00
2019-01-16T19:05:25.432Z,99244.00
2019-01-16T19:10:31.240Z,99248.00
2019-01-16T19:15:40.263Z,99241.00
2019-01-16T19:20:43.439Z,99248.00
2019-01-16T19:25:52.704Z,99235.00
2019-01-16T19:31:08.400Z,99227.00
2019-01-16T19:36:21.045Z,99213.00
2019-01-16T19:41:27.158Z,99210.00
2019-01-16T19:46:39.152Z,99203.00
2019-01-16T19:51:42.431Z,99211.00
2019-01-16T19:57:02.538Z,99198.00
2019-01-16T20:02:17.894Z,99199.00
2019-01-16T20:07:37.550Z,99190.00
2019-01-16T20:12:52.696Z,99185.00
2019-01-16T20:18:12.656Z,99186.00
2019-01-16T20:23:15.858Z,99178.00
2019-01-16T20:28:28.028Z,99167.00
2019-01-16T20:33:36.928Z,99174.00
2019-01-16T20:38:57.016Z,99165.00
2019-01-16T20:44:08.838Z,99183.00
2019-01-16T20:49:27.027Z,99166.00
2019-01-16T20:54:32.821Z,99161.00
2019-01-16T20:59:54.257Z,99163.00
2019-01-16T21:05:14.396Z,99155.00
2019-01-16T21:10:17.554Z,99156.00
2019-01-16T21:15:23.585Z,99156.00
2019-01-16T21:20:26.753Z,99164.00
2019-01-16T21:25:39.287Z,99162.00
2019-01-16T21:30:42.723Z,99134.00
2019-01-16T21:36:02.342Z,99131.00
2019-01-16T21:41:17.984Z,99126.00
2019-01-16T21:46:33.143Z,99122.00
2019-01-16T21:51:42.383Z,99128.00
2019-01-16T21:56:54.768Z,99123.00
2019-01-16T22:02:00.581Z,99131.00
2019-01-16T22:07:21.765Z,99124.00
2019-01-16T22:12:34.123Z,99107.00
2019-01-16T22:17:40.368Z,99100.00
2019-01-16T22:22:52.653Z,99092.00
2019-01-16T22:27:58.443Z,99100.00
2019-01-16T22:33:18.214Z,99116.00
2019-01-16T22:38:21.362Z,99119.00
2019-01-16T22:43:24.622Z,99127.00
2019-01-16T22:48:33.685Z,99130.00
2019-01-16T22:53:43.177Z,99123.00
2019-01-16T22:58:47.899Z,99136.00
2019-01-16T23:04:00.128Z,99130.00
2019-01-16T23:09:09.161Z,99121.00
2019-01-16T23:14:12.417Z,99129.00
2019-01-16T23:19:15.583Z,99110.00
2019-01-16T23:24:18.754Z,99105.00
2019-01-16T23:29:24.551Z,99111.00
2019-01-16T23:34:33.593Z,99094.00
2019-01-16T23:39:42.960Z,99099.00
2019-01-16T23:44:48.990Z,99093.00
2019-01-16T23:49:57.821Z,99098.00
2019-01-16T23:55:06.884Z,99082.00
